Time;durP1;ratioP1;P1;durP2;ratioP2;P2;SDS_P1;SDS_P2;PMS_P1;PMS_P2;Temp;Humidity;BMP_temperature;BMP_pressure;BME280_temperature;BME280_humidity;BME280_pressure;Samples;Min_cycle;Max_cycle;Signal;HPM_P1;HPM_P2
2022/09/21 00:00:44;;;;;;;1.80;1.00;;;;;;;17.20;62.78;101117.50;5071128;28;20726;-66
2022/09/21 00:03:10;;;;;;;1.93;1.00;;;;;;;17.20;62.78;101117.50;5072373;28;20539;-66
2022/09/21 00:05:35;;;;;;;2.10;1.10;;;;;;;17.19;63.00;101122.38;5071966;28;20156;-66
2022/09/21 00:08:02;;;;;;;1.70;0.70;;;;;;;17.19;62.40;101118.66;5054067;28;20217;-66
2022/09/21 00:10:27;;;;;;;1.70;0.90;;;;;;;17.19;62.49;101122.38;5070959;28;20167;-66
2022/09/21 00:12:52;;;;;;;1.93;0.70;;;;;;;17.19;62.64;101122.38;5070805;28;20424;-65
2022/09/21 00:15:18;;;;;;;1.50;0.73;;;;;;;17.19;62.76;101112.97;5070467;28;20179;-66
2022/09/21 00:17:44;;;;;;;1.83;1.00;;;;;;;17.18;62.76;101115.00;5071882;28;20217;-66
2022/09/21 00:20:09;;;;;;;2.53;1.17;;;;;;;17.19;62.52;101124.38;5072078;28;20163;-66
2022/09/21 00:22:34;;;;;;;2.07;0.77;;;;;;;17.18;62.92;101125.56;5070530;28;20543;-66
2022/09/21 00:25:02;;;;;;;1.70;0.90;;;;;;;17.18;62.66;101122.72;5071955;28;20187;-66
2022/09/21 00:27:30;;;;;;;1.83;0.97;;;;;;;17.18;62.84;101126.41;5103740;28;20203;-66
2022/09/21 00:29:56;;;;;;;1.50;0.80;;;;;;;17.19;62.55;101118.66;5103502;28;20410;-66
2022/09/21 00:32:23;;;;;;;2.30;1.00;;;;;;;17.17;62.62;101121.91;5071330;28;20923;-66
2022/09/21 00:34:52;;;;;;;2.47;1.13;;;;;;;17.18;62.77;101119.88;5087005;28;20397;-66
2022/09/21 00:37:18;;;;;;;2.07;0.83;;;;;;;17.16;62.49;101114.50;5071784;28;20844;-66
2022/09/21 00:39:43;;;;;;;1.87;0.90;;;;;;;17.17;62.41;101121.91;5104422;28;20414;-66
2022/09/21 00:42:09;;;;;;;1.70;0.80;;;;;;;17.16;62.42;101120.22;5071356;28;20773;-66
2022/09/21 00:44:35;;;;;;;1.80;1.00;;;;;;;17.16;62.55;101120.22;5103672;28;20610;-66
2022/09/21 00:47:08;;;;;;;1.63;0.90;;;;;;;17.16;62.45;101119.38;5070541;28;20270;-66
2022/09/21 00:49:33;;;;;;;1.87;0.93;;;;;;;17.16;62.68;101110.84;5085233;28;20199;-66
2022/09/21 00:52:00;;;;;;;1.87;0.87;;;;;;;17.17;62.64;101123.91;5102774;28;20837;-66
2022/09/21 00:54:28;;;;;;;1.80;0.97;;;;;;;17.17;62.63;101119.03;5069093;28;20175;-66
2022/09/21 00:56:54;;;;;;;1.93;1.00;;;;;;;17.16;62.69;101116.53;5085814;28;21147;-66
2022/09/21 00:59:20;;;;;;;1.80;0.90;;;;;;;17.16;62.64;101114.50;5069535;28;20486;-66
2022/09/21 01:01:46;;;;;;;1.50;0.90;;;;;;;17.17;62.80;101118.19;5070347;28;20642;-66
2022/09/21 01:04:12;;;;;;;2.40;1.20;;;;;;;17.17;62.77;101119.03;5041240;28;20180;-66
2022/09/21 01:06:37;;;;;;;1.83;1.00;;;;;;;17.16;62.42;101123.06;5066689;28;20230;-66
2022/09/21 01:09:03;;;;;;;1.60;0.80;;;;;;;17.15;62.93;101115.69;5050318;28;21221;-66
2022/09/21 01:11:56;;;;;;;1.90;0.90;;;;;;;17.15;62.67;101115.69;5083734;28;20228;-66
2022/09/21 01:14:43;;;;;;;1.50;0.80;;;;;;;17.16;62.83;101117.34;5050430;28;20179;-66
2022/09/21 01:17:21;;;;;;;1.80;0.80;;;;;;;17.16;62.53;101117.34;5051914;28;20394;-66
2022/09/21 01:19:56;;;;;;;1.83;0.93;;;;;;;17.15;62.42;101115.69;5051809;28;20434;-66
2022/09/21 01:22:24;;;;;;;2.13;0.80;;;;;;;17.15;62.73;101114.88;5051822;28;20956;-66
2022/09/21 01:24:49;;;;;;;2.23;0.90;;;;;;;17.15;62.88;101115.69;5055390;28;20428;-66
2022/09/21 01:27:48;;;;;;;1.70;0.80;;;;;;;17.15;62.51;101109.97;5071488;28;20464;-66
2022/09/21 01:30:18;;;;;;;2.27;0.83;;;;;;;17.15;62.29;101112.84;5071855;28;20254;-66
2022/09/21 01:33:14;;;;;;;2.37;0.77;;;;;;;17.15;62.56;101114.88;5087000;28;20400;-66
2022/09/21 01:35:48;;;;;;;1.50;0.83;;;;;;;17.15;62.41;101120.59;5071692;28;20421;-66
2022/09/21 01:38:25;;;;;;;1.53;0.87;;;;;;;17.15;62.74;101121.41;5086061;28;20402;-66
2022/09/21 01:40:53;;;;;;;1.60;0.80;;;;;;;17.15;62.81;101121.41;5086856;28;20416;-65
2022/09/21 01:43:25;;;;;;;2.23;1.00;;;;;;;17.15;62.30;101120.59;5103647;28;20925;-65
2022/09/21 01:45:51;;;;;;;2.27;0.90;;;;;;;17.15;62.91;101121.41;5072715;28;20421;-66
2022/09/21 01:48:17;;;;;;;1.50;0.83;;;;;;;17.15;62.35;101123.44;5073910;28;20948;-66
2022/09/21 01:50:44;;;;;;;2.00;0.87;;;;;;;17.14;62.90;101118.88;5091031;28;20443;-66
2022/09/21 01:53:16;;;;;;;2.30;1.13;;;;;;;17.14;62.89;101121.75;5090558;28;20468;-66
2022/09/21 01:55:48;;;;;;;2.27;0.90;;;;;;;17.15;62.66;101126.28;5073443;28;20624;-65
2022/09/21 01:58:23;;;;;;;1.80;0.73;;;;;;;17.14;62.38;101131.16;5089831;28;20413;-66
2022/09/21 02:00:49;;;;;;;1.50;0.70;;;;;;;17.13;62.69;101126.63;5058677;28;20397;-66
2022/09/21 02:03:28;;;;;;;1.63;0.90;;;;;;;17.13;62.64;101123.78;5057064;28;20509;-66
2022/09/21 02:05:54;;;;;;;1.77;1.10;;;;;;;17.13;62.54;101122.94;5073723;28;20406;-66
2022/09/21 02:08:19;;;;;;;3.03;1.00;;;;;;;17.13;62.78;101115.22;5074653;28;20465;-66
2022/09/21 02:10:47;;;;;;;2.13;0.87;;;;;;;17.13;62.63;101128.66;5074539;28;20204;-66
2022/09/21 02:13:13;;;;;;;1.83;0.80;;;;;;;17.12;63.00;101116.41;5074582;28;20288;-66
2022/09/21 02:16:09;;;;;;;1.93;1.00;;;;;;;17.13;62.31;101118.06;5073288;28;20959;-66
2022/09/21 02:18:57;;;;;;;1.73;0.90;;;;;;;17.12;62.31;101115.56;5048203;28;20256;-65
2022/09/21 02:21:33;;;;;;;1.50;0.80;;;;;;;17.12;62.52;101109.88;5056797;28;20425;-66
2022/09/21 02:24:02;;;;;;;1.77;0.80;;;;;;;17.13;62.36;101118.06;5072137;28;20937;-66
2022/09/21 02:26:37;;;;;;;1.80;1.00;;;;;;;17.11;62.90;101109.03;5073939;28;20461;-66
2022/09/21 02:29:24;;;;;;;1.53;0.80;;;;;;;17.12;62.55;101118.44;5088467;28;20417;-65
2022/09/21 02:31:54;;;;;;;1.93;0.80;;;;;;;17.12;62.39;101118.44;5073654;28;21036;-66
2022/09/21 02:34:19;;;;;;;1.80;0.90;;;;;;;17.12;62.40;101115.56;5106265;28;20425;-66
2022/09/21 02:36:53;;;;;;;1.60;0.97;;;;;;;17.11;62.34;101114.72;5072832;28;20889;-66
2022/09/21 02:39:22;;;;;;;1.60;0.90;;;;;;;17.12;62.51;101119.28;5105383;28;20963;-66
2022/09/21 02:41:53;;;;;;;1.57;0.80;;;;;;;17.11;62.49;101111.88;5072311;28;20459;-66
2022/09/21 02:44:22;;;;;;;1.87;1.00;;;;;;;17.10;62.41;101113.06;5074311;28;20421;-65
2022/09/21 02:46:55;;;;;;;2.00;1.10;;;;;;;17.10;62.56;101115.91;5089508;28;20465;-66
2022/09/21 02:49:25;;;;;;;1.50;0.87;;;;;;;17.10;62.56;101109.41;5089657;28;20447;-66
2022/09/21 02:51:51;;;;;;;1.60;0.90;;;;;;;17.11;62.30;101108.19;5089206;28;20409;-66
2022/09/21 02:54:18;;;;;;;1.60;0.90;;;;;;;17.11;62.43;101108.19;5089825;28;20470;-66
2022/09/21 02:56:45;;;;;;;1.47;0.83;;;;;;;17.10;62.56;101098.78;5105487;28;20940;-66
2022/09/21 02:59:10;;;;;;;1.83;1.00;;;;;;;17.11;62.27;101111.88;5072704;28;20409;-66
2022/09/21 03:01:36;;;;;;;1.67;0.80;;;;;;;17.11;62.63;101102.50;5073031;28;20417;-66
2022/09/21 03:04:01;;;;;;;1.83;1.00;;;;;;;17.09;62.76;101102.84;5056233;28;20183;-66
2022/09/21 03:06:27;;;;;;;1.90;0.90;;;;;;;17.10;62.63;101110.22;5072633;28;20195;-66
2022/09/21 03:08:52;;;;;;;1.80;0.90;;;;;;;17.10;62.47;101106.53;5074346;28;20151;-66
2022/09/21 03:11:18;;;;;;;1.40;0.80;;;;;;;17.10;62.50;101103.69;5074908;28;20195;-66
2022/09/21 03:13:44;;;;;;;1.87;0.97;;;;;;;17.09;62.36;101111.41;5056078;28;20174;-66
2022/09/21 03:16:10;;;;;;;1.80;1.10;;;;;;;17.10;62.70;101113.06;5072730;28;20765;-66
2022/09/21 03:18:35;;;;;;;1.77;0.90;;;;;;;17.09;62.72;101113.41;5073877;28;20236;-66
2022/09/21 03:21:01;;;;;;;1.77;0.97;;;;;;;17.09;62.28;101111.41;5073996;28;20199;-66
2022/09/21 03:23:27;;;;;;;2.00;0.93;;;;;;;17.10;62.29;101110.22;5056725;28;20191;-66
2022/09/21 03:25:53;;;;;;;1.50;0.80;;;;;;;17.08;62.64;101106.88;5072578;28;20486;-66
2022/09/21 03:28:19;;;;;;;2.00;0.90;;;;;;;17.09;62.32;101110.56;5072919;28;20195;-66
2022/09/21 03:30:44;;;;;;;1.70;0.90;;;;;;;17.08;62.44;101118.31;5072632;28;20413;-66
2022/09/21 03:33:10;;;;;;;1.97;1.17;;;;;;;17.09;62.76;101116.25;5073710;28;20655;-66
2022/09/21 03:35:35;;;;;;;1.50;0.83;;;;;;;17.09;62.37;101116.25;5072126;28;20561;-66
2022/09/21 03:38:01;;;;;;;1.43;0.73;;;;;;;17.09;62.52;101114.25;5106094;28;20163;-65
2022/09/21 03:40:26;;;;;;;1.40;0.80;;;;;;;17.08;62.36;101115.44;5073521;28;20164;-66
2022/09/21 03:42:53;;;;;;;1.50;0.80;;;;;;;17.08;62.28;101118.31;5073683;28;20313;-65
2022/09/21 03:45:18;;;;;;;1.60;0.93;;;;;;;17.07;62.30;101122.34;5105428;28;20585;-66
2022/09/21 03:47:43;;;;;;;1.77;1.17;;;;;;;17.08;62.23;101118.31;5105428;28;20472;-66
2022/09/21 03:50:09;;;;;;;1.50;0.80;;;;;;;17.07;62.65;101115.78;5072852;28;20298;-65
2022/09/21 03:52:38;;;;;;;1.60;0.87;;;;;;;17.08;62.88;101120.31;5072553;28;20520;-65
2022/09/21 03:55:05;;;;;;;1.77;0.80;;;;;;;17.07;62.29;101118.63;5071067;28;20318;-66
2022/09/21 03:57:37;;;;;;;1.60;0.97;;;;;;;17.07;62.66;101113.78;5071217;28;20409;-65
2022/09/21 04:00:04;;;;;;;1.40;0.80;;;;;;;17.06;62.83;101123.50;5071569;28;20908;-66
2022/09/21 04:02:30;;;;;;;2.00;1.00;;;;;;;17.07;62.32;101119.50;5069839;28;20787;-66
2022/09/21 04:04:56;;;;;;;1.80;1.03;;;;;;;17.05;62.22;101119.00;5071286;28;20428;-66
2022/09/21 04:07:21;;;;;;;1.60;0.83;;;;;;;17.07;62.29;101121.50;5069599;28;20191;-65
2022/09/21 04:09:47;;;;;;;2.20;0.93;;;;;;;17.05;62.54;101121.84;5070705;28;20539;-66
2022/09/21 04:12:12;;;;;;;1.80;0.90;;;;;;;17.05;62.29;101124.69;5072318;28;20171;-65
2022/09/21 04:14:38;;;;;;;1.60;0.80;;;;;;;17.04;62.68;101125.88;5071281;28;20183;-66
2022/09/21 04:17:03;;;;;;;2.37;0.90;;;;;;;17.06;62.24;101129.22;5070946;28;20745;-66
2022/09/21 04:19:29;;;;;;;1.97;0.90;;;;;;;17.07;62.48;101127.19;5105119;28;20235;-66
2022/09/21 04:21:55;;;;;;;1.50;0.80;;;;;;;17.05;63.02;101119.00;5072690;28;20905;-65
2022/09/21 04:24:20;;;;;;;2.47;1.30;;;;;;;17.05;62.26;101124.69;5072771;28;20860;-66
2022/09/21 04:26:46;;;;;;;1.77;1.00;;;;;;;17.05;62.59;101121.03;5052532;28;20249;-66
2022/09/21 04:29:12;;;;;;;1.53;0.87;;;;;;;17.06;62.62;101128.41;5084671;28;20233;-66
2022/09/21 04:31:38;;;;;;;1.40;0.80;;;;;;;17.05;62.65;101135.28;5051928;28;20168;-66
2022/09/21 04:34:03;;;;;;;1.40;0.70;;;;;;;17.03;62.74;101129.94;5052714;28;20413;-66
2022/09/21 04:36:28;;;;;;;1.83;1.10;;;;;;;17.04;62.65;101131.59;5090340;28;20186;-66
2022/09/21 04:38:54;;;;;;;1.50;0.90;;;;;;;17.04;62.21;101134.44;5068989;28;20623;-66
2022/09/21 04:41:19;;;;;;;1.60;0.80;;;;;;;17.03;62.29;101135.63;5070401;28;20159;-66
2022/09/21 04:43:47;;;;;;;1.50;0.80;;;;;;;17.04;62.82;101140.16;5070125;28;20174;-66
2022/09/21 04:46:14;;;;;;;1.80;0.93;;;;;;;17.04;62.32;101137.28;5070548;28;20617;-66
2022/09/21 04:48:40;;;;;;;1.53;0.80;;;;;;;17.03;62.10;101143.34;5068527;28;20918;-66
2022/09/21 04:51:06;;;;;;;1.80;0.90;;;;;;;17.02;62.41;101136.81;5069643;28;20397;-65
2022/09/21 04:53:32;;;;;;;3.70;1.37;;;;;;;17.03;62.29;101137.63;5071577;28;20220;-66
2022/09/21 04:55:58;;;;;;;1.70;0.80;;;;;;;17.03;62.60;101143.34;5072537;28;20481;-66
2022/09/21 04:58:23;;;;;;;2.00;0.83;;;;;;;17.02;62.54;101138.84;5072231;28;20167;-66
2022/09/21 05:00:50;;;;;;;2.23;1.27;;;;;;;17.03;62.53;101146.19;5071807;28;20242;-66
2022/09/21 05:03:16;;;;;;;1.57;0.90;;;;;;;17.01;62.33;101143.69;5070991;28;20570;-66
2022/09/21 05:05:51;;;;;;;1.70;1.00;;;;;;;17.02;62.48;101147.38;5070948;28;20416;-66
2022/09/21 05:08:17;;;;;;;1.73;1.03;;;;;;;17.02;62.11;101145.38;5054564;28;20440;-66
2022/09/21 05:11:02;;;;;;;1.37;0.73;;;;;;;17.02;62.40;101151.09;5072088;28;20487;-66
2022/09/21 05:13:28;;;;;;;1.60;1.00;;;;;;;17.02;62.10;101150.25;5070956;28;20413;-66
2022/09/21 05:15:56;;;;;;;3.50;1.00;;;;;;;17.01;62.27;101148.56;5072056;28;20171;-66
2022/09/21 05:18:22;;;;;;;1.80;1.00;;;;;;;17.01;62.24;101145.72;5071416;28;20607;-66
2022/09/21 05:20:57;;;;;;;1.67;0.90;;;;;;;17.01;62.18;101154.28;5076141;28;20417;-65
2022/09/21 05:23:26;;;;;;;1.60;0.80;;;;;;;16.99;62.74;101146.06;5058265;28;20207;-68
2022/09/21 05:25:51;;;;;;;1.50;0.80;;;;;;;17.00;62.39;101146.91;5074668;28;20429;-66
2022/09/21 05:28:17;;;;;;;1.67;1.00;;;;;;;17.00;62.63;101156.28;5076550;28;20540;-66
2022/09/21 05:30:54;;;;;;;1.93;0.80;;;;;;;17.00;62.32;101162.00;5075377;28;20169;-66
2022/09/21 05:33:19;;;;;;;1.57;0.87;;;;;;;16.99;62.23;101151.78;5075245;28;20508;-67
2022/09/21 05:36:03;;;;;;;2.83;1.30;;;;;;;16.99;62.21;101148.91;5075498;28;20422;-68
2022/09/21 05:38:28;;;;;;;2.10;0.97;;;;;;;16.99;62.03;101160.34;5075009;28;20170;-66
2022/09/21 05:40:54;;;;;;;1.97;1.10;;;;;;;17.00;62.36;101153.44;5074046;28;20413;-65
2022/09/21 05:43:20;;;;;;;1.87;0.70;;;;;;;16.99;62.47;101154.63;5075851;28;20190;-67
2022/09/21 05:45:47;;;;;;;1.50;0.90;;;;;;;16.99;62.39;101151.78;5074885;28;20863;-67
2022/09/21 05:48:16;;;;;;;1.60;1.00;;;;;;;16.99;62.56;101166.03;5090619;28;20227;-67
2022/09/21 05:50:56;;;;;;;1.80;1.10;;;;;;;16.99;62.58;101168.88;5074499;28;20521;-66
2022/09/21 05:53:35;;;;;;;1.60;0.90;;;;;;;17.00;62.39;101175.44;5108409;28;20428;-66
2022/09/21 05:56:04;;;;;;;1.60;0.90;;;;;;;16.98;62.24;101170.06;5075163;28;20469;-66
2022/09/21 05:58:39;;;;;;;1.43;0.80;;;;;;;16.98;62.51;101175.78;5053822;28;20500;-66
2022/09/21 06:01:19;;;;;;;1.40;0.80;;;;;;;16.99;62.45;101180.31;5075412;28;20412;-66
2022/09/21 06:03:49;;;;;;;1.53;1.00;;;;;;;16.98;62.38;101172.94;5076953;28;20448;-67
2022/09/21 06:06:16;;;;;;;1.60;0.90;;;;;;;16.98;62.71;101170.06;5074255;28;20417;-66
2022/09/21 06:08:44;;;;;;;1.60;0.90;;;;;;;16.98;62.43;101169.22;5078028;28;20776;-65
2022/09/21 06:11:09;;;;;;;1.77;1.00;;;;;;;16.98;62.36;101166.38;5081010;28;20443;-68
2022/09/21 06:13:36;;;;;;;1.53;0.80;;;;;;;16.98;62.62;101180.63;5078470;28;20414;-65
2022/09/21 06:16:02;;;;;;;1.97;1.10;;;;;;;16.97;62.62;101182.69;5077539;28;20175;-66
2022/09/21 06:18:27;;;;;;;2.37;1.10;;;;;;;16.97;62.42;101176.97;5111516;28;20428;-67
2022/09/21 06:20:53;;;;;;;2.13;0.77;;;;;;;16.97;62.27;101179.81;5091337;28;20429;-67
2022/09/21 06:23:18;;;;;;;4.63;1.40;;;;;;;16.97;62.33;101176.97;5079169;28;20180;-67
2022/09/21 06:25:49;;;;;;;1.80;1.07;;;;;;;16.97;62.16;101182.69;5079350;28;20225;-67
2022/09/21 06:28:14;;;;;;;1.90;0.90;;;;;;;16.98;62.19;101183.50;5107359;28;20205;-66
2022/09/21 06:30:41;;;;;;;1.87;1.00;;;;;;;16.96;62.31;101183.84;5074206;28;20409;-67
2022/09/21 06:33:07;;;;;;;1.60;0.90;;;;;;;16.96;62.42;101180.16;5073214;28;20176;-66
2022/09/21 06:35:33;;;;;;;1.87;1.03;;;;;;;16.97;62.28;101194.09;5090247;28;20742;-66
2022/09/21 06:38:02;;;;;;;1.70;0.93;;;;;;;16.95;62.19;101187.88;5089944;28;20187;-66
2022/09/21 06:40:28;;;;;;;2.47;1.33;;;;;;;16.95;62.65;101184.22;5089086;28;20429;-66
2022/09/21 06:42:56;;;;;;;1.97;1.13;;;;;;;16.96;62.44;101185.88;5090288;28;20876;-66
2022/09/21 06:45:21;;;;;;;1.53;0.90;;;;;;;16.95;62.46;101185.03;5072669;28;20478;-66
2022/09/21 06:47:47;;;;;;;1.83;1.00;;;;;;;16.95;62.29;101185.03;5074390;28;20453;-67
2022/09/21 06:50:12;;;;;;;2.50;1.20;;;;;;;16.95;62.24;101187.88;5074349;28;20280;-66
2022/09/21 06:52:39;;;;;;;2.87;1.00;;;;;;;16.94;62.25;101189.06;5074679;28;20175;-66
2022/09/21 06:55:08;;;;;;;2.53;1.20;;;;;;;16.95;62.49;101187.88;5071943;28;20274;-66
2022/09/21 06:57:35;;;;;;;1.80;1.10;;;;;;;16.95;62.58;101193.59;5105391;28;20444;-66
2022/09/21 07:00:01;;;;;;;1.97;0.93;;;;;;;16.95;62.14;101198.47;5074372;28;20782;-66
2022/09/21 07:02:26;;;;;;;1.93;0.93;;;;;;;16.96;62.42;101191.56;5074526;28;20425;-66
2022/09/21 07:04:52;;;;;;;1.83;0.80;;;;;;;16.95;62.53;101195.63;5072912;28;20166;-66
2022/09/21 07:07:17;;;;;;;1.67;0.97;;;;;;;16.95;62.53;101198.47;5074149;28;20202;-67
2022/09/21 07:09:43;;;;;;;1.70;0.93;;;;;;;16.95;62.28;101207.03;5074574;28;20175;-66
2022/09/21 07:12:08;;;;;;;1.90;1.00;;;;;;;16.95;62.19;101207.03;5074056;28;20163;-66
2022/09/21 07:14:34;;;;;;;1.90;0.90;;;;;;;16.94;62.27;101199.63;5074161;28;20709;-67
2022/09/21 07:16:59;;;;;;;2.27;0.90;;;;;;;16.94;62.33;101211.88;5072668;28;20160;-67
2022/09/21 07:19:25;;;;;;;2.10;1.17;;;;;;;16.94;62.29;101200.47;5073935;28;20159;-66
2022/09/21 07:21:54;;;;;;;1.80;1.10;;;;;;;16.95;62.35;101207.84;5073316;28;20167;-66
2022/09/21 07:24:19;;;;;;;1.50;0.87;;;;;;;16.94;62.29;101189.06;5074427;28;20397;-66
2022/09/21 07:26:45;;;;;;;2.23;1.10;;;;;;;16.94;62.11;101200.47;5073903;28;20840;-66
2022/09/21 07:29:10;;;;;;;1.70;1.00;;;;;;;16.93;62.80;101198.81;5072843;28;20174;-66
2022/09/21 07:31:36;;;;;;;1.90;1.03;;;;;;;16.94;62.10;101200.47;5073819;28;20171;-66
2022/09/21 07:34:01;;;;;;;2.57;1.23;;;;;;;16.94;62.21;101194.78;5072213;28;20194;-66
2022/09/21 07:36:26;;;;;;;2.13;1.20;;;;;;;16.93;62.13;101198.81;5074192;28;20168;-66
2022/09/21 07:38:52;;;;;;;2.03;1.00;;;;;;;16.93;62.53;101195.97;5073909;28;20199;-66
2022/09/21 07:41:18;;;;;;;1.60;1.10;;;;;;;16.94;62.46;101193.94;5073584;28;20186;-66
2022/09/21 07:43:43;;;;;;;1.80;1.00;;;;;;;16.93;61.70;101193.13;5073877;28;20586;-66
2022/09/21 07:46:10;;;;;;;1.73;1.13;;;;;;;16.95;62.08;101199.28;5088957;28;20170;-66
2022/09/21 07:48:36;;;;;;;1.80;1.17;;;;;;;16.93;62.32;101190.25;5072132;28;20210;-66
2022/09/21 07:51:09;;;;;;;2.10;1.07;;;;;;;16.93;62.18;101193.13;5088201;28;20426;-66
2022/09/21 07:53:36;;;;;;;1.83;1.07;;;;;;;16.94;62.36;101199.63;5071102;28;20450;-66
2022/09/21 07:56:05;;;;;;;2.40;0.97;;;;;;;16.94;62.02;101202.47;5070687;28;20473;-66
2022/09/21 08:01:39;;;;;;;1.83;0.90;;;;;;;16.94;61.87;101191.06;5009823;28;20460;-66
2022/09/21 08:04:06;;;;;;;2.63;1.30;;;;;;;16.93;62.08;101189.41;4977514;28;20468;-66
2022/09/21 08:06:32;;;;;;;1.57;0.93;;;;;;;16.93;62.39;101193.13;5023321;28;20460;-66
2022/09/21 08:09:01;;;;;;;2.53;1.60;;;;;;;16.93;62.02;101192.25;5073301;28;20785;-66
2022/09/21 08:11:29;;;;;;;1.67;0.90;;;;;;;16.92;62.29;101184.91;5072428;28;20190;-67
2022/09/21 08:13:56;;;;;;;1.60;0.80;;;;;;;16.92;62.23;101191.44;5088004;28;20397;-66
2022/09/21 08:16:21;;;;;;;1.70;0.90;;;;;;;16.93;62.36;101184.56;5088185;28;20432;-67
2022/09/21 08:18:47;;;;;;;2.03;0.97;;;;;;;16.93;62.41;101190.25;5072861;28;20409;-66
2022/09/21 08:21:12;;;;;;;2.03;1.30;;;;;;;16.93;62.33;101183.72;5072841;28;20160;-66
2022/09/21 08:23:41;;;;;;;2.20;1.20;;;;;;;16.93;62.21;101186.56;5072947;28;20550;-66
2022/09/21 08:26:07;;;;;;;1.60;1.10;;;;;;;16.93;62.31;101184.56;5072549;28;20183;-67
2022/09/21 08:28:34;;;;;;;1.67;0.90;;;;;;;16.93;62.53;101186.56;5086988;28;20468;-67
2022/09/21 08:31:00;;;;;;;1.93;1.17;;;;;;;16.92;62.04;101188.59;5104483;28;20436;-66
2022/09/21 08:33:26;;;;;;;1.53;0.87;;;;;;;16.93;62.16;101175.16;5071560;28;20967;-67
2022/09/21 08:35:55;;;;;;;1.80;1.03;;;;;;;16.94;61.87;101188.22;5104773;28;20168;-67
2022/09/21 08:38:21;;;;;;;1.63;0.83;;;;;;;16.92;62.27;101180.03;5070248;28;20414;-67
2022/09/21 08:40:47;;;;;;;2.00;1.00;;;;;;;16.94;62.31;101189.06;5072072;28;20416;-66
2022/09/21 08:43:14;;;;;;;1.87;1.10;;;;;;;16.92;62.26;101180.03;5071633;28;20179;-66
2022/09/21 08:45:41;;;;;;;2.37;1.37;;;;;;;16.92;62.29;101185.75;5072291;28;20417;-67
2022/09/21 08:48:13;;;;;;;1.60;0.97;;;;;;;16.92;62.28;101180.03;5070140;28;20453;-66
2022/09/21 08:50:41;;;;;;;1.40;0.73;;;;;;;16.93;62.11;101180.84;5086014;28;20456;-66
2022/09/21 08:53:33;;;;;;;1.87;0.83;;;;;;;16.93;62.29;101175.16;5086108;28;20500;-66
2022/09/21 08:55:59;;;;;;;1.93;0.97;;;;;;;16.92;62.06;101177.19;5069401;28;20473;-67
2022/09/21 08:58:25;;;;;;;3.93;1.13;;;;;;;16.92;62.35;101167.78;5103513;28;21072;-67
2022/09/21 09:01:14;;;;;;;1.80;1.10;;;;;;;16.92;62.43;101180.03;5070328;28;20212;-66
2022/09/21 09:04:22;;;;;;;2.47;1.20;;;;;;;16.92;62.46;101168.63;5072086;28;20402;-66
2022/09/21 09:07:06;;;;;;;1.90;0.97;;;;;;;16.92;62.08;101168.63;5063729;28;20516;-66
2022/09/21 09:09:31;;;;;;;1.80;1.13;;;;;;;16.92;61.85;101171.47;5071310;28;20426;-66
2022/09/21 09:12:18;;;;;;;3.30;1.20;;;;;;;16.93;62.30;101169.44;5072921;28;21011;-66
2022/09/21 09:15:20;;;;;;;2.03;1.33;;;;;;;16.93;62.32;101163.75;5072508;28;20709;-66
2022/09/21 09:18:10;;;;;;;1.97;1.10;;;;;;;16.93;62.33;101163.75;5072194;28;20416;-66
2022/09/21 09:20:47;;;;;;;1.70;1.10;;;;;;;16.91;62.20;101155.53;5070862;28;20432;-66
2022/09/21 09:23:21;;;;;;;1.60;0.93;;;;;;;16.91;62.17;101155.53;5070069;28;20405;-67
2022/09/21 09:25:49;;;;;;;2.13;1.07;;;;;;;16.91;62.17;101155.53;5052864;28;20432;-67
2022/09/21 09:28:34;;;;;;;1.80;1.00;;;;;;;16.92;62.13;101160.06;5102509;28;20704;-66
2022/09/21 09:31:11;;;;;;;2.83;1.30;;;;;;;16.92;61.95;101151.53;5068845;28;20893;-67
2022/09/21 09:34:16;;;;;;;2.10;1.47;;;;;;;16.92;62.01;101159.22;5084501;28;20417;-67
2022/09/21 09:36:47;;;;;;;1.80;1.03;;;;;;;16.92;62.13;101160.06;5068497;28;20425;-66
2022/09/21 09:39:14;;;;;;;3.33;1.30;;;;;;;16.91;62.41;101155.53;5070069;28;20502;-66
2022/09/21 09:41:52;;;;;;;1.77;1.00;;;;;;;16.93;61.98;101158.03;5086968;28;20417;-66
2022/09/21 09:44:33;;;;;;;1.60;1.00;;;;;;;16.93;62.33;101146.63;5054405;28;20445;-67
2022/09/21 09:47:16;;;;;;;1.80;1.00;;;;;;;16.91;62.27;101138.41;5070634;28;20475;-66
2022/09/21 09:50:17;;;;;;;2.10;1.17;;;;;;;16.92;62.00;101142.97;5071204;28;20439;-66
2022/09/21 09:52:42;;;;;;;2.20;1.27;;;;;;;16.92;62.16;101139.25;5069544;28;20428;-67
2022/09/21 09:55:19;;;;;;;3.00;1.23;;;;;;;16.91;62.16;101127.00;5069296;28;20417;-66
2022/09/21 09:57:45;;;;;;;2.10;1.30;;;;;;;16.92;62.02;101130.72;5086893;28;20250;-66
2022/09/21 10:00:16;;;;;;;2.23;1.30;;;;;;;16.93;61.91;101126.66;5071344;28;20413;-67
2022/09/21 10:02:56;;;;;;;2.00;1.20;;;;;;;16.91;62.22;101127.00;5052265;28;20417;-66
2022/09/21 10:05:28;;;;;;;3.80;1.50;;;;;;;16.92;62.21;101125.84;5070006;28;20460;-67
2022/09/21 10:07:53;;;;;;;2.30;1.00;;;;;;;16.93;62.32;101130.34;5074358;28;20514;-67
2022/09/21 10:10:30;;;;;;;1.70;1.03;;;;;;;16.92;62.32;101119.28;5074932;28;20928;-66
2022/09/21 10:13:17;;;;;;;2.10;1.33;;;;;;;16.93;62.19;101118.09;5073334;28;20745;-66
2022/09/21 10:15:49;;;;;;;1.80;1.00;;;;;;;16.92;62.30;101114.44;5060085;28;20482;-67
2022/09/21 10:18:21;;;;;;;1.90;1.10;;;;;;;16.91;62.23;101109.91;5053848;28;20402;-66
2022/09/21 10:20:57;;;;;;;3.40;1.00;;;;;;;16.91;62.68;101106.22;5087104;28;20426;-67
2022/09/21 10:23:23;;;;;;;2.90;1.27;;;;;;;16.93;61.75;101101.00;5085187;28;20436;-67
2022/09/21 10:26:08;;;;;;;3.40;1.27;;;;;;;16.92;61.86;101103.03;5098190;28;20429;-66
2022/09/21 10:28:33;;;;;;;2.73;1.30;;;;;;;16.93;62.10;101106.69;5071608;28;20199;-66
2022/09/21 10:31:22;;;;;;;2.60;1.30;;;;;;;16.94;62.21;101103.50;5105470;28;20944;-66
2022/09/21 10:33:54;;;;;;;1.90;1.00;;;;;;;16.93;61.85;101099.00;5074302;28;20159;-67
2022/09/21 10:36:31;;;;;;;2.40;1.20;;;;;;;16.93;62.32;101099.00;5072881;28;20491;-66
2022/09/21 10:39:10;;;;;;;2.07;1.00;;;;;;;16.93;61.82;101089.59;5089482;28;20421;-67
2022/09/21 10:41:36;;;;;;;3.23;0.97;;;;;;;16.92;61.97;101094.47;5072854;28;20428;-67
2022/09/21 10:44:01;;;;;;;2.43;1.37;;;;;;;16.92;61.93;101094.47;5106079;28;20421;-67
2022/09/21 10:46:33;;;;;;;2.03;1.10;;;;;;;16.93;61.73;101096.13;5089172;28;20444;-66
2022/09/21 10:48:59;;;;;;;1.90;1.10;;;;;;;16.93;62.01;101087.56;5072646;28;20658;-66
2022/09/21 10:51:28;;;;;;;1.83;1.07;;;;;;;16.92;62.14;101091.63;5073518;28;20425;-67
2022/09/21 10:53:53;;;;;;;3.13;1.10;;;;;;;16.93;61.94;101090.44;5074772;28;20429;-66
2022/09/21 10:56:18;;;;;;;1.50;0.90;;;;;;;16.93;61.98;101086.72;5106446;28;20480;-66
2022/09/21 10:59:20;;;;;;;1.77;1.00;;;;;;;16.95;61.86;101084.38;5072056;28;20175;-67
2022/09/21 11:01:47;;;;;;;2.20;1.30;;;;;;;16.93;61.81;101090.44;5070514;28;20194;-67
2022/09/21 11:04:24;;;;;;;2.43;1.30;;;;;;;16.95;61.91;101085.19;5071936;28;20427;-66
2022/09/21 11:06:53;;;;;;;1.70;1.20;;;;;;;16.95;61.91;101082.34;5073163;28;20463;-66
2022/09/21 11:09:36;;;;;;;3.00;0.97;;;;;;;16.94;62.06;101077.00;5055208;28;20409;-66
2022/09/21 11:12:06;;;;;;;2.27;1.17;;;;;;;16.94;62.02;101074.97;5071681;28;21113;-66
2022/09/21 11:14:43;;;;;;;1.70;0.90;;;;;;;16.95;61.86;101070.13;5072516;28;20425;-66
2022/09/21 11:17:14;;;;;;;1.93;0.90;;;;;;;16.93;62.16;101061.91;5072192;28;20451;-67
2022/09/21 11:20:01;;;;;;;2.47;1.40;;;;;;;16.93;61.90;101064.75;5072061;28;20774;-66
2022/09/21 11:22:33;;;;;;;6.17;1.10;;;;;;;16.94;61.99;101063.56;5073632;28;20405;-67
2022/09/21 11:25:31;;;;;;;2.43;1.17;;;;;;;16.95;61.91;101070.94;5072652;28;20463;-66
2022/09/21 11:28:29;;;;;;;1.70;1.00;;;;;;;16.95;61.82;101053.81;5071927;28;20924;-67
2022/09/21 11:31:02;;;;;;;2.00;1.10;;;;;;;16.95;61.92;101047.31;5073145;28;21001;-66
2022/09/21 11:34:12;;;;;;;2.17;1.27;;;;;;;16.94;62.03;101045.63;5105816;28;20806;-66
2022/09/21 11:37:19;;;;;;;2.30;1.20;;;;;;;16.96;61.86;101049.78;5042344;28;20438;-67
2022/09/21 11:40:05;;;;;;;2.80;1.30;;;;;;;16.95;61.63;101036.72;5073278;28;20972;-66
2022/09/21 11:42:33;;;;;;;2.87;1.30;;;;;;;16.97;61.89;101040.06;5072524;28;20420;-67